Terminal Aerodrome Forecast
Issued by NWS

Home | Current Version | Previous Version | Text Only | Print | Product List | Glossary On
Versions: 1 2 3 4 5 6 7 8 9 10 11 12 13 14 15 16 17 18 19 20 21 22 23 24 25 26 27 28 29 30 31 32 33 34 35
000
FTUS41 KBOX 301722
TAFBAF
TAF
KBAF 301722Z 3018/3118 20012KT P6SM BKN035
      TEMPO 3019/3021 2SM +TSRA BR BKN025 OVC050CB
     FM310200 22004KT P6SM BKN040
     FM310400 24004KT P6SM SCT060=

USA.gov is the U.S. government's official web portal to all federal, state and local government web resources and services.